createdAt,value
2017-08-04T00:00:12.271Z,99.99
2017-08-04T00:01:22.545Z,99.99
2017-08-04T00:02:33.127Z,99.99
2017-08-04T00:03:43.401Z,99.99
2017-08-04T00:04:53.681Z,99.99
2017-08-04T00:06:03.327Z,99.99
2017-08-04T00:07:13.595Z,99.99
2017-08-04T00:08:23.549Z,99.99
2017-08-04T00:09:33.507Z,99.99
2017-08-04T00:10:43.460Z,99.99
2017-08-04T00:11:53.413Z,99.99
2017-08-04T00:13:03.051Z,99.99
2017-08-04T00:14:13.323Z,99.99
2017-08-04T00:15:23.593Z,99.99
2017-08-04T00:16:33.247Z,99.99
2017-08-04T00:17:43.209Z,99.99
2017-08-04T00:18:53.487Z,99.99
2017-08-04T00:20:03.760Z,99.99
2017-08-04T00:21:14.032Z,99.99
2017-08-04T00:22:24.320Z,99.99
2017-08-04T00:23:34.275Z,99.99
2017-08-04T00:24:44.543Z,99.99
2017-08-04T00:25:54.820Z,99.99
2017-08-04T00:27:04.778Z,99.99
2017-08-04T00:28:15.045Z,99.99
2017-08-04T00:29:24.690Z,99.99
2017-08-04T00:30:34.963Z,99.99
2017-08-04T00:31:45.230Z,99.99
2017-08-04T00:32:55.496Z,99.99
2017-08-04T00:34:05.771Z,99.99
2017-08-04T00:35:15.727Z,99.99
2017-08-04T00:36:25.994Z,99.99
2017-08-04T00:37:35.947Z,99.99
2017-08-04T00:38:45.908Z,99.99
2017-08-04T00:39:56.172Z,99.99
2017-08-04T00:41:06.125Z,99.99
2017-08-04T00:42:16.397Z,99.99
2017-08-04T00:43:26.668Z,99.99
2017-08-04T00:44:36.940Z,99.99
2017-08-04T00:45:46.899Z,99.99
2017-08-04T00:46:56.849Z,99.99
2017-08-04T00:48:07.115Z,99.99
2017-08-04T00:49:17.390Z,99.99
2017-08-04T00:50:27.349Z,99.99
2017-08-04T00:51:37.621Z,99.99
2017-08-04T00:52:47.889Z,99.99
2017-08-04T00:53:57.526Z,99.99
2017-08-04T00:55:07.798Z,99.99
2017-08-04T00:56:18.076Z,99.99
2017-08-04T00:57:28.343Z,99.99
2017-08-04T00:58:38.610Z,99.99
2017-08-04T00:59:48.883Z,99.99
2017-08-04T01:00:58.835Z,99.99
2017-08-04T01:02:09.100Z,99.99
2017-08-04T01:03:19.369Z,99.99
2017-08-04T01:04:29.638Z,99.99
2017-08-04T01:05:39.906Z,99.99
2017-08-04T01:06:50.175Z,99.99
2017-08-04T01:08:00.444Z,99.99
2017-08-04T01:09:10.084Z,99.99
2017-08-04T01:10:20.048Z,99.99
2017-08-04T01:11:30.321Z,99.99
2017-08-04T01:12:40.589Z,99.99
2017-08-04T01:13:50.545Z,99.99
2017-08-04T01:15:00.502Z,99.99
2017-08-04T01:16:10.457Z,99.99
2017-08-04T01:17:20.727Z,99.99
2017-08-04T01:18:30.993Z,99.99
2017-08-04T01:19:40.943Z,99.99
2017-08-04T01:20:51.209Z,99.99
2017-08-04T01:22:01.483Z,99.99
2017-08-04T01:23:11.436Z,99.99
2017-08-04T01:24:21.711Z,99.99
2017-08-04T01:25:31.674Z,99.99
2017-08-04T01:26:41.945Z,99.99
2017-08-04T01:27:51.906Z,99.99
2017-08-04T01:29:02.180Z,99.99
2017-08-04T01:30:12.135Z,99.99
2017-08-04T01:31:22.406Z,99.99
2017-08-04T01:32:32.700Z,99.99
2017-08-04T01:33:42.658Z,99.99
2017-08-04T01:34:52.923Z,99.99
2017-08-04T01:36:03.204Z,99.99
2017-08-04T01:37:13.170Z,99.99
2017-08-04T01:38:23.435Z,99.99
2017-08-04T01:39:33.711Z,99.99
2017-08-04T01:40:43.984Z,99.99
2017-08-04T01:41:53.942Z,99.99
2017-08-04T01:43:04.225Z,99.99
2017-08-04T01:44:14.186Z,99.99
2017-08-04T01:45:24.454Z,99.99
2017-08-04T01:46:34.726Z,99.99
2017-08-04T01:47:44.997Z,99.99
2017-08-04T01:48:55.262Z,99.99
2017-08-04T01:50:05.534Z,99.99
2017-08-04T01:51:15.518Z,99.99
2017-08-04T01:52:25.476Z,99.99
2017-08-04T01:53:35.749Z,99.99
2017-08-04T01:54:45.707Z,99.99
2017-08-04T01:55:55.976Z,99.99
2017-08-04T01:57:06.244Z,99.99
2017-08-04T01:58:16.192Z,99.99
2017-08-04T01:59:26.464Z,99.99
2017-08-04T02:00:36.739Z,99.99
2017-08-04T02:01:47.005Z,99.99
2017-08-04T02:02:57.290Z,99.99
2017-08-04T02:04:07.580Z,99.99
2017-08-04T02:05:17.847Z,99.99
2017-08-04T02:06:27.799Z,99.99
2017-08-04T02:07:38.066Z,99.99
2017-08-04T02:08:48.340Z,99.99
2017-08-04T02:09:58.618Z,99.99
2017-08-04T02:11:08.578Z,99.99
2017-08-04T02:12:18.534Z,99.99
2017-08-04T02:13:28.488Z,99.99
2017-08-04T02:14:38.759Z,99.99
2017-08-04T02:15:49.029Z,99.99
2017-08-04T02:16:59.398Z,99.99
2017-08-04T02:18:09.668Z,99.99
2017-08-04T02:19:19.622Z,99.99
2017-08-04T02:20:29.922Z,99.99
2017-08-04T02:21:40.197Z,99.99
2017-08-04T02:22:50.156Z,99.99
2017-08-04T02:24:00.107Z,99.99
2017-08-04T02:25:10.383Z,99.99
2017-08-04T02:26:20.650Z,99.99
2017-08-04T02:27:30.918Z,99.99
2017-08-04T02:28:40.881Z,99.99
2017-08-04T02:29:51.156Z,99.99
2017-08-04T02:31:01.107Z,99.99
2017-08-04T02:32:11.379Z,99.99
2017-08-04T02:33:21.021Z,99.99
2017-08-04T02:34:31.290Z,99.99
2017-08-04T02:35:41.563Z,99.99
2017-08-04T02:36:51.837Z,99.99
2017-08-04T02:38:02.124Z,99.99
2017-08-04T02:39:12.397Z,99.99
2017-08-04T02:40:22.681Z,99.99
2017-08-04T02:41:32.638Z,99.99
2017-08-04T02:42:42.910Z,99.99
2017-08-04T02:43:52.871Z,99.99
2017-08-04T02:45:02.836Z,99.99
2017-08-04T02:46:13.112Z,99.99
2017-08-04T02:47:23.382Z,99.99
2017-08-04T02:48:33.652Z,99.99
2017-08-04T02:49:43.621Z,99.99
2017-08-04T02:50:53.897Z,99.99
2017-08-04T02:52:04.168Z,99.99
2017-08-04T02:53:14.441Z,99.99
2017-08-04T02:54:24.718Z,99.99
2017-08-04T02:55:34.672Z,99.99
2017-08-04T02:56:44.945Z,99.99
2017-08-04T02:57:57.238Z,99.99
2017-08-04T02:59:07.197Z,99.99
2017-08-04T03:00:17.474Z,99.99
2017-08-04T03:01:27.745Z,99.99
2017-08-04T03:02:38.014Z,99.99
2017-08-04T03:03:48.287Z,99.99
2017-08-04T03:04:58.555Z,99.99
2017-08-04T03:06:08.509Z,99.99
2017-08-04T03:07:18.147Z,99.99
2017-08-04T03:08:28.415Z,99.99
2017-08-04T03:09:38.368Z,99.99
2017-08-04T03:10:48.326Z,99.99
2017-08-04T03:11:58.601Z,99.99
2017-08-04T03:13:08.873Z,99.99
2017-08-04T03:14:18.832Z,99.99
2017-08-04T03:15:31.105Z,99.99
2017-08-04T03:16:40.753Z,99.99
2017-08-04T03:17:51.022Z,99.99
2017-08-04T03:19:00.977Z,99.99
2017-08-04T03:20:11.249Z,99.99
2017-08-04T03:21:21.207Z,99.99
2017-08-04T03:22:31.485Z,99.99
2017-08-04T03:23:41.764Z,99.99
2017-08-04T03:24:52.031Z,99.99
2017-08-04T03:26:02.313Z,99.99
2017-08-04T03:27:12.273Z,99.99
2017-08-04T03:28:22.541Z,99.99
2017-08-04T03:29:32.810Z,99.99
2017-08-04T03:30:43.089Z,99.99
2017-08-04T03:31:53.362Z,99.99
2017-08-04T03:33:03.567Z,99.99
2017-08-04T03:34:13.527Z,99.99
2017-08-04T03:35:23.800Z,99.99
2017-08-04T03:36:34.069Z,99.99
2017-08-04T03:37:44.381Z,99.99
2017-08-04T03:38:54.649Z,99.99
2017-08-04T03:40:04.928Z,99.99
2017-08-04T03:41:14.891Z,99.99
2017-08-04T03:42:25.158Z,99.99
2017-08-04T03:43:35.113Z,99.99
2017-08-04T03:44:45.383Z,99.99
2017-08-04T03:45:55.340Z,99.99
2017-08-04T03:47:05.609Z,99.99
2017-08-04T03:48:15.876Z,99.99
2017-08-04T03:49:26.149Z,99.99
2017-08-04T03:50:36.105Z,99.99
2017-08-04T03:51:46.062Z,99.99
2017-08-04T03:52:56.342Z,99.99
2017-08-04T03:54:06.295Z,99.99
2017-08-04T03:55:16.562Z,99.99
2017-08-04T03:56:26.833Z,99.99
2017-08-04T03:57:36.794Z,99.99
2017-08-04T03:58:46.746Z,99.99
2017-08-04T03:59:57.015Z,99.99
2017-08-04T04:01:07.295Z,99.99
2017-08-04T04:02:17.577Z,99.99
2017-08-04T04:03:27.850Z,99.99
2017-08-04T04:04:37.804Z,99.99
2017-08-04T04:05:48.084Z,99.99
2017-08-04T04:06:58.044Z,99.99
2017-08-04T04:08:08.002Z,99.99
2017-08-04T04:09:18.271Z,99.99
2017-08-04T04:10:28.230Z,99.99
2017-08-04T04:11:38.509Z,99.99
2017-08-04T04:12:48.460Z,99.99
2017-08-04T04:13:58.109Z,99.99
2017-08-04T04:15:07.752Z,99.99
2017-08-04T04:16:18.021Z,99.99
2017-08-04T04:17:27.977Z,99.99
2017-08-04T04:18:38.247Z,99.99
2017-08-04T04:19:48.516Z,99.99
2017-08-04T04:20:58.466Z,99.99
2017-08-04T04:22:08.432Z,99.99
2017-08-04T04:23:18.388Z,99.99
2017-08-04T04:24:28.657Z,99.99
2017-08-04T04:25:38.919Z,99.99
2017-08-04T04:26:48.874Z,99.99
2017-08-04T04:27:59.141Z,99.99
2017-08-04T04:29:09.102Z,99.99
2017-08-04T04:30:19.373Z,99.99
2017-08-04T04:31:29.326Z,99.99
2017-08-04T04:32:39.598Z,99.99
2017-08-04T04:33:49.256Z,99.99
2017-08-04T04:34:59.537Z,99.99
2017-08-04T04:36:09.495Z,99.99
2017-08-04T04:37:19.148Z,99.99
2017-08-04T04:38:29.415Z,99.99
2017-08-04T04:39:39.370Z,99.99
2017-08-04T04:40:49.658Z,99.99
2017-08-04T04:41:59.925Z,99.99
2017-08-04T04:43:09.881Z,99.99
2017-08-04T04:44:20.150Z,99.99
2017-08-04T04:45:30.102Z,99.99
2017-08-04T04:46:40.069Z,99.99
2017-08-04T04:47:49.706Z,99.99
2017-08-04T04:48:59.976Z,99.99
2017-08-04T04:50:09.932Z,99.99
2017-08-04T04:51:20.225Z,99.99
2017-08-04T04:52:30.183Z,99.99
2017-08-04T04:53:40.454Z,99.99
2017-08-04T04:54:50.724Z,99.99
2017-08-04T04:56:00.674Z,99.99
2017-08-04T04:57:10.629Z,99.99
2017-08-04T04:58:20.905Z,99.99
2017-08-04T04:59:31.178Z,99.99
2017-08-04T05:00:41.446Z,99.99
2017-08-04T05:01:51.718Z,99.99
2017-08-04T05:03:01.987Z,99.99
2017-08-04T05:04:12.262Z,99.99
2017-08-04T05:05:22.532Z,99.99
2017-08-04T05:06:32.799Z,99.99
2017-08-04T05:07:43.069Z,99.99
2017-08-04T05:08:53.349Z,99.99
2017-08-04T05:10:03.304Z,99.99
2017-08-04T05:11:13.601Z,99.99
2017-08-04T05:12:23.881Z,99.99
2017-08-04T05:13:34.145Z,99.99
2017-08-04T05:14:44.425Z,99.99
2017-08-04T05:15:54.379Z,99.99
2017-08-04T05:17:04.661Z,99.99
2017-08-04T05:18:14.931Z,99.99
2017-08-04T05:19:25.204Z,99.99
2017-08-04T05:20:35.482Z,99.99
2017-08-04T05:21:45.434Z,99.99
2017-08-04T05:22:55.387Z,99.99
2017-08-04T05:24:05.658Z,99.99
2017-08-04T05:25:15.614Z,99.99
2017-08-04T05:26:25.883Z,99.99
2017-08-04T05:27:36.153Z,99.99
2017-08-04T05:28:46.125Z,99.99
2017-08-04T05:29:56.082Z,99.99
2017-08-04T05:31:06.360Z,99.99
2017-08-04T05:32:16.319Z,99.99
2017-08-04T05:33:26.592Z,99.99
2017-08-04T05:34:36.862Z,99.99
2017-08-04T05:35:47.135Z,99.99
2017-08-04T05:36:57.404Z,99.99
2017-08-04T05:38:07.376Z,99.99
2017-08-04T05:39:17.339Z,99.99
2017-08-04T05:40:27.611Z,99.99
2017-08-04T05:41:37.882Z,99.99
2017-08-04T05:42:47.836Z,99.99
2017-08-04T05:43:58.144Z,99.99
2017-08-04T05:45:08.416Z,99.99
2017-08-04T05:46:18.371Z,99.99
2017-08-04T05:47:28.326Z,99.99
2017-08-04T05:48:38.284Z,99.99
2017-08-04T05:49:48.556Z,99.99
2017-08-04T05:50:58.838Z,99.99
2017-08-04T05:52:09.106Z,99.99
2017-08-04T05:53:19.385Z,99.99
2017-08-04T05:54:29.657Z,99.99
2017-08-04T05:55:39.619Z,99.99
2017-08-04T05:56:49.891Z,99.99
2017-08-04T05:58:00.176Z,99.99
2017-08-04T05:59:09.824Z,99.99
2017-08-04T06:00:20.101Z,99.99
2017-08-04T06:01:30.376Z,99.99
2017-08-04T06:02:40.650Z,99.99
2017-08-04T06:03:50.953Z,99.99
2017-08-04T06:05:00.912Z,99.99
2017-08-04T06:06:11.189Z,99.99
2017-08-04T06:07:21.466Z,99.99
2017-08-04T06:08:31.734Z,99.99
2017-08-04T06:09:42.010Z,99.99
2017-08-04T06:10:51.348Z,99.99
2017-08-04T06:12:00.993Z,99.99
2017-08-04T06:13:11.282Z,99.99
2017-08-04T06:14:21.237Z,99.99
2017-08-04T06:15:31.512Z,99.99
2017-08-04T06:16:41.782Z,99.99
2017-08-04T06:17:51.742Z,99.99
2017-08-04T06:19:01.714Z,99.99
2017-08-04T06:20:12.009Z,99.99
2017-08-04T06:21:21.973Z,99.99
2017-08-04T06:22:31.935Z,99.99
2017-08-04T06:23:41.907Z,99.99
2017-08-04T06:24:52.174Z,99.99
2017-08-04T06:26:01.820Z,99.99
2017-08-04T06:27:12.094Z,99.99
2017-08-04T06:28:22.051Z,99.99
2017-08-04T06:29:32.321Z,99.99
2017-08-04T06:30:42.601Z,99.99
2017-08-04T06:31:52.883Z,99.99
2017-08-04T06:33:03.157Z,99.99
2017-08-04T06:34:12.800Z,99.99
2017-08-04T06:35:23.071Z,99.99
2017-08-04T06:36:33.346Z,99.99
2017-08-04T06:37:43.629Z,99.99
2017-08-04T06:38:53.901Z,99.99
2017-08-04T06:40:04.177Z,99.99
2017-08-04T06:41:13.510Z,99.99
2017-08-04T06:42:23.469Z,99.99
2017-08-04T06:43:33.742Z,99.99
2017-08-04T06:44:44.018Z,99.99
2017-08-04T06:45:54.290Z,99.99
2017-08-04T06:47:04.564Z,99.91
2017-08-04T06:48:14.836Z,99.73
2017-08-04T06:49:24.485Z,98.67
2017-08-04T06:50:34.766Z,98.1
2017-08-04T06:51:45.040Z,98.96
2017-08-04T06:52:55.314Z,98.48
2017-08-04T06:54:05.589Z,98.19
2017-08-04T06:55:15.229Z,98.38
2017-08-04T06:56:25.183Z,98.1
2017-08-04T06:57:35.143Z,98.28
2017-08-04T06:58:45.415Z,98.38
2017-08-04T06:59:55.380Z,97.52
2017-08-04T07:01:05.343Z,97.33
2017-08-04T07:02:15.307Z,96.32
2017-08-04T07:03:25.589Z,96.37
2017-08-04T07:04:35.545Z,96.56
2017-08-04T07:05:45.514Z,96.47
2017-08-04T07:06:55.158Z,97.14
2017-08-04T07:08:05.427Z,96.89
2017-08-04T07:09:15.084Z,96.13
2017-08-04T07:10:25.359Z,96.51
2017-08-04T07:11:35.006Z,96.03
2017-08-04T07:12:44.965Z,96.32
2017-08-04T07:13:54.611Z,96.22
2017-08-04T07:15:04.579Z,95.36
2017-08-04T07:16:14.853Z,94.88
2017-08-04T07:17:25.131Z,95.31
2017-08-04T07:18:35.129Z,93.01
2017-08-04T07:19:45.402Z,92.19
2017-08-04T07:20:55.677Z,92.19
2017-08-04T07:22:05.640Z,91.66
2017-08-04T07:23:15.916Z,90.42
2017-08-04T07:24:26.192Z,91.76
2017-08-04T07:25:36.463Z,92.05
2017-08-04T07:26:46.729Z,91.09
2017-08-04T07:27:56.373Z,92.05
2017-08-04T07:29:06.330Z,91.86
2017-08-04T07:30:16.609Z,91.86
2017-08-04T07:31:26.896Z,91.52
2017-08-04T07:32:36.543Z,90.75
2017-08-04T07:33:46.816Z,91.52
2017-08-04T07:34:57.123Z,92.1
2017-08-04T07:36:07.082Z,92.57
2017-08-04T07:37:17.358Z,92.19
2017-08-04T07:38:27.315Z,92
2017-08-04T07:39:37.588Z,92
2017-08-04T07:40:47.860Z,90.75
2017-08-04T07:41:58.137Z,91.52
2017-08-04T07:43:08.411Z,92.19
2017-08-04T07:44:18.371Z,92.29
2017-08-04T07:45:28.655Z,92.19
2017-08-04T07:46:38.936Z,91.71
2017-08-04T07:47:49.210Z,91.9
2017-08-04T07:48:59.516Z,92.29
2017-08-04T07:50:09.788Z,91.81
2017-08-04T07:51:19.481Z,91.61
2017-08-04T07:52:29.311Z,91.13
2017-08-04T07:53:39.730Z,91.42
2017-08-04T07:54:50.121Z,91.52
2017-08-04T07:56:02.002Z,91.13
2017-08-04T07:57:12.449Z,90.42
2017-08-04T07:58:22.884Z,90.8
2017-08-04T07:59:32.531Z,90.9
2017-08-04T08:00:42.811Z,91.28
2017-08-04T08:01:53.086Z,91.09
2017-08-04T08:03:03.361Z,90.32
2017-08-04T08:04:13.016Z,90.7
2017-08-04T08:05:23.293Z,90.22
2017-08-04T08:06:33.283Z,90.22
2017-08-04T08:07:43.567Z,90.13
2017-08-04T08:08:53.529Z,91.57
2017-08-04T08:10:03.807Z,90.7
2017-08-04T08:11:13.768Z,90.7
2017-08-04T08:12:24.046Z,90.32
2017-08-04T08:13:34.321Z,90.08
2017-08-04T08:14:44.296Z,90.7
2017-08-04T08:15:54.574Z,91.47
2017-08-04T08:17:04.531Z,90.85
2017-08-04T08:18:14.813Z,90.18
2017-08-04T08:19:25.100Z,89.99
2017-08-04T08:20:35.379Z,90.18
2017-08-04T08:21:45.658Z,90.75
2017-08-04T08:22:55.935Z,90.66
2017-08-04T08:24:06.211Z,90.47
2017-08-04T08:25:16.485Z,90.47
2017-08-04T08:26:26.446Z,90.08
2017-08-04T08:27:36.721Z,90.85
2017-08-04T08:28:46.989Z,90.85
2017-08-04T08:29:56.320Z,90.85
2017-08-04T08:31:08.896Z,91.81
2017-08-04T08:32:19.173Z,91.72
2017-08-04T08:33:29.447Z,91.81
2017-08-04T08:34:39.728Z,90.7
2017-08-04T08:35:49.691Z,90.66
2017-08-04T08:36:59.966Z,91.38
2017-08-04T08:38:10.244Z,91.09
2017-08-04T08:39:20.534Z,90.7
2017-08-04T08:40:30.505Z,90.32
2017-08-04T08:41:40.787Z,91.19
2017-08-04T08:42:50.745Z,90.17
2017-08-04T08:44:01.026Z,89.69
2017-08-04T08:45:10.995Z,89.12
2017-08-04T08:46:20.955Z,89.5
2017-08-04T08:47:30.605Z,90.17
2017-08-04T08:48:40.568Z,89.16
2017-08-04T08:49:50.850Z,87.82
2017-08-04T08:51:00.807Z,88.97
2017-08-04T08:52:10.777Z,88.87
2017-08-04T08:53:20.739Z,87.62
2017-08-04T08:54:30.393Z,87.62
2017-08-04T08:55:40.665Z,88.59
2017-08-04T08:56:50.628Z,87.72
2017-08-04T08:58:00.269Z,87.58
2017-08-04T08:59:10.550Z,86.76
2017-08-04T09:00:20.837Z,87.1
2017-08-04T09:01:30.481Z,86.95
2017-08-04T09:02:40.450Z,87.29
2017-08-04T09:03:50.414Z,86.76
2017-08-04T09:05:00.696Z,87.1
2017-08-04T09:06:11.046Z,87.49
2017-08-04T09:07:21.008Z,87.87
2017-08-04T09:08:31.293Z,88.25
2017-08-04T09:09:41.575Z,88.73
2017-08-04T09:10:51.852Z,88.25
2017-08-04T09:12:01.505Z,88.06
2017-08-04T09:13:11.778Z,88.25
2017-08-04T09:14:21.739Z,89.12
2017-08-04T09:15:32.018Z,90.08
2017-08-04T09:16:41.984Z,89.55
2017-08-04T09:17:51.950Z,89.46
2017-08-04T09:19:01.914Z,89.12
2017-08-04T09:20:12.189Z,89.26
2017-08-04T09:21:22.462Z,89.07
2017-08-04T09:22:32.738Z,89.26
2017-08-04T09:23:43.011Z,88.88
2017-08-04T09:24:53.282Z,88.88
2017-08-04T09:26:03.247Z,90.32
2017-08-04T09:27:13.211Z,89.46
2017-08-04T09:28:23.493Z,89.26
2017-08-04T09:29:33.793Z,89.75
2017-08-04T09:30:44.072Z,89.84
2017-08-04T09:31:54.347Z,90.13
2017-08-04T09:33:04.336Z,89.65
2017-08-04T09:34:14.614Z,90.03
2017-08-04T09:35:24.577Z,89.46
2017-08-04T09:36:34.852Z,89.07
2017-08-04T09:37:45.133Z,89.46
2017-08-04T09:38:55.406Z,89.07
2017-08-04T09:40:05.695Z,89.36
2017-08-04T09:41:15.341Z,89.17
2017-08-04T09:42:25.617Z,89.26
2017-08-04T09:43:35.606Z,89.07
2017-08-04T09:44:45.247Z,89.46
2017-08-04T09:45:55.209Z,89.94
2017-08-04T09:47:05.166Z,90.13
2017-08-04T09:48:15.128Z,89.75
2017-08-04T09:49:25.404Z,90.22
2017-08-04T09:50:35.679Z,89.26
2017-08-04T09:51:45.326Z,90.52
2017-08-04T09:52:55.601Z,89.94
2017-08-04T09:54:05.872Z,89.7
2017-08-04T09:55:15.833Z,90.13
2017-08-04T09:56:26.107Z,89.65
2017-08-04T09:57:36.073Z,89.22
2017-08-04T09:58:46.348Z,89.99
2017-08-04T09:59:56.620Z,90.9
2017-08-04T10:01:06.597Z,89.89
2017-08-04T10:02:16.878Z,90.66
2017-08-04T10:03:26.845Z,90.9
2017-08-04T10:04:36.805Z,90.8
2017-08-04T10:05:46.764Z,90.99
2017-08-04T10:06:57.044Z,92.05
2017-08-04T10:08:07.319Z,91.28
2017-08-04T10:09:16.963Z,91.66
2017-08-04T10:10:27.240Z,91.57
2017-08-04T10:11:37.524Z,90.99
2017-08-04T10:12:47.812Z,91.38
2017-08-04T10:13:58.095Z,90.85
2017-08-04T10:15:08.061Z,93.44
2017-08-04T10:16:17.704Z,92.86
2017-08-04T10:17:27.984Z,93.59
2017-08-04T10:18:38.264Z,93.26
2017-08-04T10:19:48.535Z,94.12
2017-08-04T10:20:58.510Z,93.63
2017-08-04T10:22:08.476Z,93.83
2017-08-04T10:23:18.763Z,93.35
2017-08-04T10:24:28.732Z,92.68
2017-08-04T10:25:39.002Z,92.49
2017-08-04T10:26:48.987Z,93.44
2017-08-04T10:27:59.266Z,94.02
2017-08-04T10:29:08.912Z,93.63
2017-08-04T10:30:19.192Z,94.69
2017-08-04T10:31:29.151Z,94.21
2017-08-04T10:32:39.114Z,93.73
2017-08-04T10:33:49.394Z,94.21
2017-08-04T10:34:59.673Z,94.17
2017-08-04T10:36:09.951Z,94.07
2017-08-04T10:37:19.916Z,94.07
2017-08-04T10:38:30.185Z,93.97
2017-08-04T10:39:40.461Z,93.68
2017-08-04T10:40:50.109Z,93.82
2017-08-04T10:42:00.064Z,93.44
2017-08-04T10:43:10.025Z,93.63
2017-08-04T10:44:19.673Z,93.44
2017-08-04T10:45:29.631Z,92.91
2017-08-04T10:46:39.909Z,93.1
2017-08-04T10:47:50.205Z,92.24
2017-08-04T10:49:00.160Z,92.05
2017-08-04T10:50:10.441Z,91.13
2017-08-04T10:51:20.719Z,91.42
2017-08-04T10:52:30.685Z,91.13
2017-08-04T10:53:40.955Z,90.08
2017-08-04T10:54:50.918Z,89.22
2017-08-04T10:56:01.193Z,90.31
2017-08-04T10:57:11.150Z,89.07
2017-08-04T10:58:21.106Z,88.97
2017-08-04T10:59:31.084Z,87.92
2017-08-04T11:00:41.047Z,88.39
2017-08-04T11:01:51.018Z,87.24
2017-08-04T11:03:00.979Z,87.34
2017-08-04T11:04:11.258Z,87.86
2017-08-04T11:05:21.228Z,87.48
2017-08-04T11:06:31.514Z,87.29
2017-08-04T11:07:41.795Z,87.19
2017-08-04T11:08:52.076Z,87.57
2017-08-04T11:10:02.345Z,86.61
2017-08-04T11:11:12.317Z,86.04
2017-08-04T11:12:22.282Z,86.32
2017-08-04T11:13:32.248Z,87.09
2017-08-04T11:14:42.524Z,86.71
2017-08-04T11:15:52.807Z,87.67
2017-08-04T11:17:02.770Z,85.46
2017-08-04T11:18:13.050Z,84.5
2017-08-04T11:19:23.329Z,84.73
2017-08-04T11:20:33.606Z,84.44
2017-08-04T11:21:43.580Z,84.63
2017-08-04T11:22:53.856Z,84.06
2017-08-04T11:24:04.142Z,84.34
2017-08-04T11:25:14.101Z,84.34
2017-08-04T11:26:24.375Z,84
2017-08-04T11:27:34.655Z,83.91
2017-08-04T11:28:44.628Z,84.48
2017-08-04T11:29:54.904Z,84.19
2017-08-04T11:31:04.570Z,82.75
2017-08-04T11:32:14.540Z,82.85
2017-08-04T11:33:24.512Z,82.17
2017-08-04T11:34:34.786Z,82.56
2017-08-04T11:35:45.061Z,83.81
2017-08-04T11:36:55.032Z,82.5
2017-08-04T11:38:05.304Z,82.6
2017-08-04T11:39:15.593Z,83.37
2017-08-04T11:40:25.866Z,82.7
2017-08-04T11:41:36.147Z,82.7
2017-08-04T11:42:46.110Z,82.6
2017-08-04T11:43:56.074Z,80.87
2017-08-04T11:45:06.355Z,78.85
2017-08-04T11:46:16.320Z,80.77
2017-08-04T11:47:26.596Z,81.25
2017-08-04T11:48:36.868Z,81.6
2017-08-04T11:49:47.152Z,81.93
2017-08-04T11:50:57.110Z,82.56
2017-08-04T11:52:07.385Z,82.56
2017-08-04T11:53:17.351Z,83.04
2017-08-04T11:54:27.625Z,83.42
2017-08-04T11:55:37.583Z,82.85
2017-08-04T11:56:47.242Z,82.65
2017-08-04T11:57:57.522Z,81.79
2017-08-04T11:59:07.482Z,82.17
2017-08-04T12:00:17.132Z,82.08
2017-08-04T12:01:27.560Z,82.27
2017-08-04T12:02:37.851Z,82.17
2017-08-04T12:03:47.815Z,82.17
2017-08-04T12:04:57.783Z,80.63
2017-08-04T12:06:08.061Z,80.44
2017-08-04T12:07:18.030Z,81.12
2017-08-04T12:08:28.305Z,81.4
2017-08-04T12:09:38.261Z,80.44
2017-08-04T12:10:48.543Z,80.54
2017-08-04T12:11:58.823Z,80.44
2017-08-04T12:13:09.096Z,80.54
2017-08-04T12:14:19.376Z,81.3
2017-08-04T12:15:29.336Z,81.12
2017-08-04T12:16:39.617Z,81.12
2017-08-04T12:17:49.910Z,81.37
2017-08-04T12:18:59.875Z,80.69
2017-08-04T12:20:10.149Z,81.56
2017-08-04T12:21:20.432Z,82.67
2017-08-04T12:22:30.706Z,83.01
2017-08-04T12:23:40.667Z,83.87
2017-08-04T12:24:50.946Z,84.64
2017-08-04T12:26:01.227Z,84.94
2017-08-04T12:27:11.506Z,87.19
2017-08-04T12:28:21.156Z,87.05
2017-08-04T12:29:31.122Z,88.02
2017-08-04T12:30:41.402Z,87.54
2017-08-04T12:31:51.683Z,87.49
2017-08-04T12:33:01.957Z,89.22
2017-08-04T12:34:12.232Z,91.42
2017-08-04T12:35:22.513Z,92.29
2017-08-04T12:36:34.787Z,91.33
2017-08-04T12:37:45.073Z,91.19
2017-08-04T12:38:55.349Z,93.49
2017-08-04T12:40:05.012Z,93.88
2017-08-04T12:41:14.978Z,94.93
2017-08-04T12:42:24.945Z,95.89
2017-08-04T12:43:35.222Z,96.89
2017-08-04T12:44:45.512Z,97.76
2017-08-04T12:45:55.156Z,94.31
2017-08-04T12:47:05.116Z,95.84
2017-08-04T12:48:14.764Z,97.47
2017-08-04T12:49:25.051Z,95.94
2017-08-04T12:50:35.020Z,95.89
2017-08-04T12:51:45.309Z,96.08
2017-08-04T12:52:55.268Z,95.41
2017-08-04T12:54:05.546Z,95.6
2017-08-04T12:55:15.826Z,95.98
2017-08-04T12:56:25.789Z,95.98
2017-08-04T12:57:36.069Z,96.66
2017-08-04T12:58:46.032Z,98.1
2017-08-04T12:59:56.334Z,99.05
2017-08-04T13:01:05.979Z,98.57
2017-08-04T13:02:15.942Z,98.57
2017-08-04T13:03:26.213Z,97.9
2017-08-04T13:04:36.485Z,99.63
2017-08-04T13:05:46.760Z,99.99
2017-08-04T13:06:57.035Z,99.99
2017-08-04T13:08:06.996Z,99.63
2017-08-04T13:09:16.955Z,98.96
2017-08-04T13:10:27.236Z,99.72
2017-08-04T13:11:37.505Z,99.99
2017-08-04T13:12:47.458Z,99.99
2017-08-04T13:13:57.733Z,99.99
2017-08-04T13:15:08.036Z,99.99
2017-08-04T13:16:17.994Z,99.99
2017-08-04T13:17:28.269Z,99.99
2017-08-04T13:18:38.543Z,99.99
2017-08-04T13:19:48.505Z,99.99
2017-08-04T13:20:58.782Z,99.99
2017-08-04T13:22:08.763Z,99.99
2017-08-04T13:23:19.034Z,99.99
2017-08-04T13:24:28.995Z,99.99
2017-08-04T13:25:39.266Z,99.99
2017-08-04T13:26:49.230Z,99.99
2017-08-04T13:27:59.505Z,99.99
2017-08-04T13:29:09.767Z,99.99
2017-08-04T13:30:19.723Z,99.99
2017-08-04T13:31:29.685Z,99.99
2017-08-04T13:32:39.961Z,99.99
2017-08-04T13:33:49.920Z,99.99
2017-08-04T13:35:00.191Z,99.99
2017-08-04T13:36:10.163Z,99.99
2017-08-04T13:37:20.433Z,99.99
2017-08-04T13:38:30.709Z,99.99
2017-08-04T13:39:40.353Z,99.99
2017-08-04T13:40:50.627Z,99.99
2017-08-04T13:42:00.267Z,99.99
2017-08-04T13:43:10.225Z,99.99
2017-08-04T13:44:20.183Z,99.99
2017-08-04T13:45:30.137Z,99.99
2017-08-04T13:46:40.408Z,99.99
2017-08-04T13:47:50.683Z,99.99
2017-08-04T13:49:00.949Z,99.99
2017-08-04T13:50:11.222Z,99.99
2017-08-04T13:51:21.498Z,99.99
2017-08-04T13:52:31.463Z,99.99
2017-08-04T13:53:41.738Z,99.99
2017-08-04T13:54:52.010Z,99.99
2017-08-04T13:56:01.970Z,99.99
2017-08-04T13:57:12.236Z,99.99
2017-08-04T13:58:21.566Z,99.99
2017-08-04T13:59:31.524Z,99.99
2017-08-04T14:00:41.796Z,99.99
2017-08-04T14:01:52.067Z,99.99
2017-08-04T14:03:02.365Z,99.99
2017-08-04T14:04:12.639Z,99.99
2017-08-04T14:05:22.911Z,99.99
2017-08-04T14:06:32.900Z,99.99
2017-08-04T14:07:43.170Z,99.99
2017-08-04T14:08:53.439Z,99.99
2017-08-04T14:10:03.395Z,99.99
2017-08-04T14:11:13.697Z,99.99
2017-08-04T14:12:24.015Z,99.99
2017-08-04T14:13:34.281Z,99.99
2017-08-04T14:14:44.553Z,99.99
2017-08-04T14:15:54.510Z,99.99
2017-08-04T14:17:04.788Z,99.99
2017-08-04T14:18:14.765Z,99.99
2017-08-04T14:19:24.408Z,99.99
2017-08-04T14:20:34.683Z,99.99
2017-08-04T14:21:44.948Z,99.99
2017-08-04T14:22:55.217Z,99.99
2017-08-04T14:24:05.482Z,99.99
2017-08-04T14:25:15.127Z,99.99
2017-08-04T14:26:24.768Z,99.99
2017-08-04T14:27:35.043Z,99.99
2017-08-04T14:28:45.330Z,99.99
2017-08-04T14:29:55.611Z,99.99
2017-08-04T14:31:05.881Z,99.99
2017-08-04T14:32:15.835Z,99.99
2017-08-04T14:33:26.107Z,99.99
2017-08-04T14:34:36.070Z,99.99
2017-08-04T14:35:46.350Z,99.99
2017-08-04T14:36:56.625Z,99.99
2017-08-04T14:38:06.914Z,99.99
2017-08-04T14:39:17.184Z,99.99
2017-08-04T14:40:27.454Z,99.99
2017-08-04T14:41:37.723Z,99.99
2017-08-04T14:42:47.676Z,99.99
2017-08-04T14:43:57.950Z,99.99
2017-08-04T14:45:07.908Z,99.99
2017-08-04T14:46:17.869Z,99.99
2017-08-04T14:47:27.825Z,99.99
2017-08-04T14:48:38.099Z,99.99
2017-08-04T14:49:48.371Z,99.99
2017-08-04T14:50:58.641Z,99.99
2017-08-04T14:52:08.298Z,99.99
2017-08-04T14:53:18.571Z,99.99
2017-08-04T14:54:28.843Z,99.99
2017-08-04T14:55:39.126Z,99.99
2017-08-04T14:56:49.085Z,99.99
2017-08-04T14:57:59.357Z,99.99
2017-08-04T14:59:09.628Z,99.99
2017-08-04T15:00:19.586Z,99.99
2017-08-04T15:01:29.855Z,99.99
2017-08-04T15:02:40.130Z,99.99
2017-08-04T15:03:50.399Z,99.99
2017-08-04T15:05:00.685Z,99.99